createdAt,value
2023-01-29T00:01:42.245Z,9.93
2023-01-29T00:05:43.457Z,10.37
2023-01-29T00:09:44.634Z,9.87
2023-01-29T00:13:46.696Z,9.57
2023-01-29T00:17:47.687Z,9.90
2023-01-29T00:21:48.723Z,8.90
2023-01-29T00:25:49.902Z,9.53
2023-01-29T00:29:53.068Z,9.53
2023-01-29T00:33:54.270Z,9.37
2023-01-29T00:37:56.285Z,11.13
2023-01-29T00:42:15.581Z,12.17
2023-01-29T00:46:16.635Z,11.93
2023-01-29T00:50:18.518Z,11.20
2023-01-29T00:54:19.739Z,12.37
2023-01-29T00:58:21.787Z,11.37
2023-01-29T01:02:41.907Z,10.57
2023-01-29T01:06:43.049Z,9.47
2023-01-29T01:10:44.523Z,13.27
2023-01-29T01:14:45.767Z,12.50
2023-01-29T01:18:46.859Z,14.30
2023-01-29T01:22:48.078Z,11.30
2023-01-29T01:26:49.282Z,10.67
2023-01-29T01:30:50.338Z,10.60
2023-01-29T01:34:52.394Z,14.10
2023-01-29T01:38:54.390Z,10.60
2023-01-29T01:43:00.269Z,11.40
2023-01-29T01:47:01.542Z,12.07
2023-01-29T01:51:05.955Z,11.37
2023-01-29T01:55:10.699Z,11.40
2023-01-29T01:59:15.686Z,11.93
2023-01-29T02:03:37.772Z,12.40
2023-01-29T02:08:06.249Z,13.10
2023-01-29T02:12:10.541Z,14.30
2023-01-29T02:16:11.564Z,20.53
2023-01-29T02:20:16.797Z,14.67
2023-01-29T02:24:48.108Z,15.43
2023-01-29T02:29:24.559Z,14.13
2023-01-29T02:34:01.414Z,14.77
2023-01-29T02:38:24.354Z,14.77
2023-01-29T02:42:35.279Z,12.17
2023-01-29T02:46:42.840Z,12.93
2023-01-29T02:50:58.944Z,13.17
2023-01-29T02:55:16.027Z,13.47
2023-01-29T02:59:20.827Z,12.43
2023-01-29T03:03:28.790Z,12.93
2023-01-29T03:07:44.112Z,13.63
2023-01-29T03:11:48.938Z,13.97
2023-01-29T03:15:58.520Z,14.67
2023-01-29T03:20:01.252Z,17.20
2023-01-29T03:24:21.788Z,15.73
2023-01-29T03:28:42.161Z,17.43
2023-01-29T03:32:45.590Z,16.57
2023-01-29T03:36:54.962Z,17.90
2023-01-29T03:40:59.803Z,19.03
2023-01-29T03:45:21.546Z,16.90
2023-01-29T03:49:44.678Z,17.47
2023-01-29T03:54:04.563Z,17.13
2023-01-29T03:58:09.315Z,16.57
2023-01-29T04:02:18.831Z,21.70
2023-01-29T04:06:26.513Z,19.93
2023-01-29T04:10:29.258Z,18.30
2023-01-29T04:14:32.041Z,18.40
2023-01-29T04:18:35.032Z,17.87
2023-01-29T04:22:38.747Z,19.40
2023-01-29T04:27:15.509Z,17.97
2023-01-29T04:31:19.373Z,17.93
2023-01-29T04:35:35.944Z,21.33
2023-01-29T04:39:58.988Z,21.33
2023-01-29T04:44:03.891Z,22.10
2023-01-29T04:48:08.617Z,20.20
2023-01-29T04:52:25.623Z,23.27
2023-01-29T04:56:36.169Z,23.33
2023-01-29T05:00:40.915Z,24.10
2023-01-29T05:04:44.051Z,25.23
2023-01-29T05:08:46.961Z,25.57
2023-01-29T05:12:58.142Z,25.53
2023-01-29T05:17:02.885Z,20.23
2023-01-29T05:21:06.952Z,18.70
2023-01-29T05:25:26.582Z,18.00
2023-01-29T05:29:27.949Z,19.00
2023-01-29T05:33:30.856Z,18.27
2023-01-29T05:37:31.910Z,18.33
2023-01-29T05:41:32.899Z,17.87
2023-01-29T05:45:34.019Z,19.63
2023-01-29T05:49:35.724Z,19.07
2023-01-29T05:53:37.770Z,20.80
2023-01-29T05:57:40.245Z,19.03
2023-01-29T06:01:43.286Z,22.00
2023-01-29T06:05:44.289Z,21.80
2023-01-29T06:09:45.375Z,23.40
2023-01-29T06:13:47.129Z,23.90
2023-01-29T06:17:48.236Z,22.73
2023-01-29T06:21:49.246Z,25.60
2023-01-29T06:25:50.345Z,22.67
2023-01-29T06:29:53.648Z,22.07
2023-01-29T06:33:54.851Z,23.63
2023-01-29T06:37:56.314Z,22.20
2023-01-29T06:41:57.406Z,22.23
2023-01-29T06:45:58.555Z,22.53
2023-01-29T06:50:00.141Z,28.40
2023-01-29T06:54:01.082Z,26.60
2023-01-29T06:58:11.299Z,26.73
2023-01-29T07:02:12.847Z,28.03
2023-01-29T07:06:13.870Z,30.07
2023-01-29T07:10:15.473Z,26.57
2023-01-29T07:14:17.012Z,28.17
2023-01-29T07:18:18.108Z,28.13
2023-01-29T07:22:19.316Z,28.63
2023-01-29T07:26:20.650Z,23.70
2023-01-29T07:30:21.835Z,25.90
2023-01-29T07:34:22.988Z,24.87
2023-01-29T07:38:24.097Z,26.03
2023-01-29T07:42:25.205Z,27.87
2023-01-29T07:46:26.157Z,32.03
2023-01-29T07:50:27.653Z,26.97
2023-01-29T07:54:28.816Z,29.30
2023-01-29T07:58:30.014Z,28.73
2023-01-29T08:02:31.371Z,30.60
2023-01-29T08:06:32.472Z,30.93
2023-01-29T08:10:35.093Z,40.23
2023-01-29T08:14:36.327Z,37.13
2023-01-29T08:18:38.090Z,34.30
2023-01-29T08:22:39.226Z,34.40
2023-01-29T08:26:40.456Z,29.80
2023-01-29T08:30:43.393Z,29.60
2023-01-29T08:34:45.742Z,30.40
2023-01-29T08:38:46.921Z,27.43
2023-01-29T08:42:47.992Z,26.47
2023-01-29T08:46:48.990Z,28.20
2023-01-29T08:50:50.615Z,26.70
2023-01-29T08:54:51.770Z,28.57
2023-01-29T08:58:52.756Z,28.43
2023-01-29T09:02:53.935Z,30.20
2023-01-29T09:06:55.059Z,28.70
2023-01-29T09:10:59.029Z,27.63
2023-01-29T09:15:00.050Z,30.67
2023-01-29T09:19:01.221Z,31.67
2023-01-29T09:23:06.727Z,30.77
2023-01-29T09:27:10.354Z,31.57
2023-01-29T09:31:11.535Z,32.27
2023-01-29T09:35:12.624Z,29.73
2023-01-29T09:39:14.087Z,35.67
2023-01-29T09:43:22.011Z,28.83
2023-01-29T09:47:26.437Z,28.73
2023-01-29T09:51:34.359Z,27.93
2023-01-29T09:55:39.170Z,27.90
2023-01-29T09:59:40.215Z,32.07
2023-01-29T10:03:54.277Z,33.00
2023-01-29T10:08:04.645Z,28.20
2023-01-29T10:12:41.040Z,31.20
2023-01-29T10:17:03.826Z,26.83
2023-01-29T10:21:08.774Z,30.23
2023-01-29T10:25:13.085Z,32.77
2023-01-29T10:29:17.914Z,27.43
2023-01-29T10:33:22.869Z,26.53
2023-01-29T10:37:41.733Z,24.57
2023-01-29T10:42:15.416Z,27.93
2023-01-29T10:46:38.402Z,23.40
2023-01-29T10:50:43.381Z,25.17
2023-01-29T10:59:00.382Z,26.03
2023-01-29T11:03:27.529Z,27.33
2023-01-29T11:07:22.515Z,25.63
2023-01-29T11:11:30.445Z,25.40
2023-01-29T11:15:34.206Z,24.37
2023-01-29T11:19:41.756Z,25.53
2023-01-29T11:23:43.324Z,24.67
2023-01-29T11:28:01.814Z,24.00
2023-01-29T11:32:15.418Z,25.97
2023-01-29T11:36:37.824Z,24.00
2023-01-29T11:40:40.214Z,26.30
2023-01-29T11:44:42.470Z,26.23
2023-01-29T11:48:50.919Z,26.43
2023-01-29T11:52:52.558Z,25.43
2023-01-29T11:56:54.932Z,24.20
2023-01-29T12:00:58.002Z,21.83
2023-01-29T12:05:08.869Z,28.87
2023-01-29T12:09:15.520Z,31.73
2023-01-29T12:13:27.709Z,25.13
2023-01-29T12:17:32.313Z,26.77
2023-01-29T12:21:37.132Z,25.27
2023-01-29T12:25:41.970Z,22.57
2023-01-29T12:29:52.905Z,26.77
2023-01-29T12:34:00.550Z,23.57
2023-01-29T12:38:05.627Z,29.00
2023-01-29T12:42:21.882Z,25.23
2023-01-29T12:46:29.655Z,27.90
2023-01-29T12:50:35.765Z,27.90
2023-01-29T12:54:49.396Z,27.93
2023-01-29T12:58:53.142Z,24.57
2023-01-29T13:03:17.923Z,26.30
2023-01-29T13:07:23.890Z,25.23
2023-01-29T13:12:00.655Z,25.37
2023-01-29T13:16:05.831Z,24.47
2023-01-29T13:20:16.986Z,23.83
2023-01-29T13:24:21.624Z,21.03
2023-01-29T13:28:25.978Z,22.97
2023-01-29T13:32:30.026Z,23.40
2023-01-29T13:36:31.700Z,23.30
2023-01-29T13:40:35.354Z,25.13
2023-01-29T13:44:38.988Z,25.03
2023-01-29T13:48:46.127Z,21.87
2023-01-29T13:52:56.431Z,21.73
2023-01-29T13:56:59.802Z,22.63
2023-01-29T14:01:01.095Z,22.97
2023-01-29T14:09:31.166Z,23.77
2023-01-29T14:13:35.146Z,18.63
2023-01-29T14:17:37.491Z,17.60
2023-01-29T14:21:38.992Z,21.80
2023-01-29T14:25:40.640Z,17.30
2023-01-29T14:29:42.007Z,16.43
2023-01-29T14:33:43.603Z,16.13
2023-01-29T14:37:49.692Z,16.83
2023-01-29T14:41:51.867Z,17.03
2023-01-29T14:45:52.892Z,18.83
2023-01-29T14:49:57.293Z,15.63
2023-01-29T14:54:20.207Z,15.63
2023-01-29T14:58:28.443Z,21.00
2023-01-29T15:02:39.142Z,17.07
2023-01-29T15:06:50.015Z,18.60
2023-01-29T15:10:55.837Z,19.17
2023-01-29T15:15:09.603Z,23.77
2023-01-29T15:19:39.477Z,20.80
2023-01-29T15:23:40.746Z,15.23
2023-01-29T15:27:43.599Z,18.33
2023-01-29T15:31:46.986Z,17.57
2023-01-29T15:35:49.855Z,19.97
2023-01-29T15:39:52.973Z,18.43
2023-01-29T15:43:57.042Z,18.40
2023-01-29T15:48:05.835Z,17.30
2023-01-29T15:52:28.662Z,19.23
2023-01-29T15:56:33.445Z,19.37
2023-01-29T16:00:35.341Z,17.23
2023-01-29T16:04:36.494Z,22.17
2023-01-29T16:08:39.569Z,26.77
2023-01-29T16:12:41.159Z,23.93
2023-01-29T16:16:45.218Z,25.43
2023-01-29T16:20:56.944Z,24.00
2023-01-29T16:25:04.178Z,23.30
2023-01-29T16:29:07.426Z,22.40
2023-01-29T16:33:15.237Z,22.73
2023-01-29T16:37:23.272Z,22.50
2023-01-29T16:41:30.787Z,23.70
2023-01-29T16:45:31.800Z,21.20
2023-01-29T16:49:39.475Z,22.07
2023-01-29T16:53:44.352Z,23.97
2023-01-29T16:57:49.525Z,24.30
2023-01-29T17:01:51.286Z,25.60
2023-01-29T17:05:53.080Z,26.37
2023-01-29T17:09:57.967Z,29.53
2023-01-29T17:13:59.584Z,24.67
2023-01-29T17:18:02.812Z,23.90
2023-01-29T17:22:05.811Z,25.97
2023-01-29T17:26:09.415Z,31.93
2023-01-29T17:30:15.551Z,29.87
2023-01-29T17:34:17.275Z,31.73
2023-01-29T17:38:25.921Z,29.93
2023-01-29T17:42:22.691Z,28.00
2023-01-29T17:46:23.835Z,26.03
2023-01-29T17:50:27.773Z,25.93
2023-01-29T17:54:29.610Z,44.30
2023-01-29T17:58:31.626Z,35.07
2023-01-29T18:02:33.341Z,38.67
2023-01-29T18:06:35.288Z,40.23
2023-01-29T18:10:36.717Z,42.63
2023-01-29T18:14:39.251Z,36.03
2023-01-29T18:18:40.648Z,45.97
2023-01-29T18:22:42.173Z,30.93
2023-01-29T18:26:43.190Z,28.67
2023-01-29T18:30:46.484Z,32.27
2023-01-29T18:34:47.466Z,35.93
2023-01-29T18:38:48.735Z,39.43
2023-01-29T18:42:49.917Z,32.27
2023-01-29T18:46:51.434Z,30.67
2023-01-29T18:50:52.509Z,39.97
2023-01-29T18:54:54.037Z,37.70
2023-01-29T18:58:56.104Z,36.30
2023-01-29T19:02:57.403Z,36.00
2023-01-29T19:06:58.578Z,31.93
2023-01-29T19:11:02.441Z,36.30
2023-01-29T19:15:04.713Z,34.87
2023-01-29T19:19:06.413Z,29.10
2023-01-29T19:23:09.125Z,30.93
2023-01-29T19:27:11.217Z,33.27
2023-01-29T19:31:13.173Z,44.33
2023-01-29T19:35:14.867Z,68.40
2023-01-29T19:39:17.659Z,71.13
2023-01-29T19:43:18.825Z,64.53
2023-01-29T19:47:20.554Z,47.50
2023-01-29T19:51:22.955Z,46.40
2023-01-29T19:55:24.619Z,41.57
2023-01-29T19:59:26.341Z,47.13
2023-01-29T20:03:28.802Z,50.63
2023-01-29T20:07:30.685Z,45.07
2023-01-29T20:11:32.456Z,48.17
2023-01-29T20:15:33.816Z,50.77
2023-01-29T20:19:35.067Z,49.13
2023-01-29T20:23:38.391Z,49.63
2023-01-29T20:27:39.545Z,51.67
2023-01-29T20:31:41.135Z,49.17
2023-01-29T20:35:42.404Z,52.90
2023-01-29T20:39:43.548Z,47.60
2023-01-29T20:43:46.458Z,52.13
2023-01-29T20:47:50.326Z,66.83
2023-01-29T20:51:51.485Z,56.80
2023-01-29T20:55:52.683Z,53.73
2023-01-29T20:59:54.338Z,56.73
2023-01-29T21:03:55.619Z,49.63
2023-01-29T21:07:56.782Z,52.87
2023-01-29T21:11:57.857Z,48.43
2023-01-29T21:15:59.196Z,53.60
2023-01-29T21:20:00.356Z,49.30
2023-01-29T21:24:01.621Z,52.47
2023-01-29T21:28:03.727Z,52.53
2023-01-29T21:32:04.814Z,45.90
2023-01-29T21:36:07.365Z,56.60
2023-01-29T21:40:10.265Z,48.43
2023-01-29T21:44:12.113Z,47.30
2023-01-29T21:48:13.415Z,40.13
2023-01-29T21:52:15.013Z,44.30
2023-01-29T21:56:18.278Z,39.17
2023-01-29T22:00:19.691Z,41.50
2023-01-29T22:04:21.080Z,43.57
2023-01-29T22:08:22.043Z,47.57
2023-01-29T22:12:23.273Z,43.27
2023-01-29T22:16:24.319Z,41.00
2023-01-29T22:20:27.470Z,43.10
2023-01-29T22:24:28.533Z,46.33
2023-01-29T22:28:29.486Z,46.70
2023-01-29T22:32:32.064Z,48.13
2023-01-29T22:36:33.070Z,43.17
2023-01-29T22:40:34.115Z,41.90
2023-01-29T22:44:35.081Z,40.57
2023-01-29T22:48:36.489Z,48.50
2023-01-29T22:52:41.771Z,43.90
2023-01-29T22:56:42.706Z,47.03
2023-01-29T23:00:43.814Z,40.40
2023-01-29T23:04:44.997Z,38.93
2023-01-29T23:08:46.097Z,42.87
2023-01-29T23:12:47.007Z,48.67
2023-01-29T23:16:48.182Z,50.03
2023-01-29T23:20:52.898Z,47.67
2023-01-29T23:24:53.991Z,32.40
2023-01-29T23:28:55.286Z,32.27
2023-01-29T23:32:56.240Z,30.30
2023-01-29T23:36:57.326Z,36.03
2023-01-29T23:40:59.144Z,31.83
2023-01-29T23:45:00.120Z,34.50
2023-01-29T23:49:01.447Z,35.00
2023-01-29T23:53:02.573Z,37.07
2023-01-29T23:57:03.749Z,33.90
